Time;durP1;ratioP1;P1;durP2;ratioP2;P2;SDS_P1;SDS_P2;PMS_P1;PMS_P2;Temp;Humidity;BMP_temperature;BMP_pressure;BME280_temperature;BME280_humidity;BME280_pressure;Samples;Min_cycle;Max_cycle;Signal;HPM_P1;HPM_P2
2021/10/03 00:00:17;;;;;;;2.85;1.33;;;17.20;99.90;;;;;;5057311;28;20025;-42
2021/10/03 00:02:43;;;;;;;;;;;17.30;99.90;;;;;;5059734;28;20375;-44
2021/10/03 00:05:13;;;;;;;1.10;0.85;;;17.30;99.90;;;;;;5058204;28;20418;-42
2021/10/03 00:07:41;;;;;;;1.00;0.80;;;17.30;99.90;;;;;;5056850;28;20024;-42
2021/10/03 00:10:08;;;;;;;0.98;0.90;;;17.30;99.90;;;;;;5060519;28;20021;-43
2021/10/03 00:12:34;;;;;;;0.70;0.70;;;17.30;99.90;;;;;;5054087;28;20029;-42
2021/10/03 00:14:59;;;;;;;0.77;0.70;;;17.40;99.90;;;;;;5062355;28;20044;-42
2021/10/03 00:17:25;;;;;;;1.33;0.90;;;17.40;99.90;;;;;;5052479;28;20039;-42
2021/10/03 00:19:51;;;;;;;0.93;0.70;;;17.40;99.90;;;;;;5063863;28;20017;-41
2021/10/03 00:22:16;;;;;;;0.88;0.60;;;17.40;99.90;;;;;;5058140;28;20098;-42
2021/10/03 00:24:42;;;;;;;1.00;0.70;;;17.40;99.90;;;;;;5059842;28;20048;-41
2021/10/03 00:27:11;;;;;;;1.17;0.70;;;17.50;99.90;;;;;;5072682;28;20388;-42
2021/10/03 00:29:46;;;;;;;1.40;0.90;;;17.50;99.90;;;;;;5058883;28;20074;-43
2021/10/03 00:32:23;;;;;;;1.38;0.80;;;17.50;99.90;;;;;;5071830;28;20032;-43
2021/10/03 00:34:49;;;;;;;1.00;0.65;;;17.50;99.90;;;;;;5060012;28;20025;-41
2021/10/03 00:37:14;;;;;;;0.63;0.60;;;17.60;99.90;;;;;;5072217;28;20082;-43
2021/10/03 00:39:40;;;;;;;0.82;0.82;;;17.60;99.90;;;;;;5058819;28;20060;-41
2021/10/03 00:42:06;;;;;;;0.70;0.70;;;17.60;99.90;;;;;;5072634;28;20023;-42
2021/10/03 00:44:31;;;;;;;0.68;0.60;;;17.60;99.90;;;;;;5061379;28;20479;-42
2021/10/03 00:46:58;;;;;;;0.60;0.60;;;17.70;99.90;;;;;;5069758;28;20086;-43
2021/10/03 00:49:24;;;;;;;0.75;0.75;;;17.70;99.90;;;;;;5063595;28;20021;-42
2021/10/03 00:51:52;;;;;;;2.08;0.80;;;17.70;99.90;;;;;;5067024;28;20020;-44
2021/10/03 00:54:18;;;;;;;0.40;0.30;;;17.70;99.90;;;;;;5065339;28;20049;-39
2021/10/03 00:56:44;;;;;;;0.60;0.47;;;17.70;99.90;;;;;;5064942;28;20115;-42
2021/10/03 00:59:10;;;;;;;1.75;0.70;;;17.70;99.90;;;;;;5069044;28;20171;-42
2021/10/03 01:01:36;;;;;;;0.55;0.40;;;17.70;99.90;;;;;;5061300;28;20520;-42
2021/10/03 01:04:01;;;;;;;0.70;0.40;;;17.80;99.90;;;;;;5070311;28;20021;-43
2021/10/03 01:06:27;;;;;;;0.52;0.52;;;17.80;99.90;;;;;;5059794;28;20081;-42
2021/10/03 01:08:53;;;;;;;0.70;0.70;;;17.80;99.90;;;;;;5069558;28;20040;-43
2021/10/03 01:11:19;;;;;;;0.75;0.50;;;17.70;99.90;;;;;;5062379;28;20045;-42
2021/10/03 01:13:48;;;;;;;2.05;0.55;;;17.80;99.90;;;;;;5051472;28;20041;-43
2021/10/03 01:16:15;;;;;;;0.60;0.60;;;17.80;99.90;;;;;;5064070;28;20029;-43
2021/10/03 01:18:40;;;;;;;1.20;0.50;;;17.80;99.90;;;;;;5050523;28;20029;-40
2021/10/03 01:21:08;;;;;;;1.20;0.70;;;17.80;99.90;;;;;;5063206;28;20038;-42
2021/10/03 01:23:34;;;;;;;0.60;0.60;;;17.70;99.90;;;;;;5067879;28;20087;-43
2021/10/03 01:26:00;;;;;;;0.88;0.63;;;17.70;99.90;;;;;;5059306;28;20056;-43
2021/10/03 01:28:26;;;;;;;0.75;0.50;;;17.60;99.90;;;;;;5068440;28;20476;-41
2021/10/03 01:30:55;;;;;;;1.13;0.80;;;17.60;99.90;;;;;;5062334;28;20017;-43
2021/10/03 01:33:24;;;;;;;1.17;0.68;;;17.60;99.90;;;;;;5066713;28;20089;-41
2021/10/03 01:35:50;;;;;;;0.68;0.68;;;17.60;99.90;;;;;;5063495;28;20020;-43
2021/10/03 01:38:16;;;;;;;1.05;0.75;;;17.50;99.90;;;;;;5065000;28;20047;-43
2021/10/03 01:40:43;;;;;;;0.60;0.50;;;17.50;99.90;;;;;;5066350;28;20016;-43
2021/10/03 01:43:09;;;;;;;0.60;0.50;;;17.40;99.90;;;;;;5062286;28;20017;-45
2021/10/03 01:45:36;;;;;;;0.65;0.60;;;17.40;99.90;;;;;;5068872;28;20021;-44
2021/10/03 01:48:12;;;;;;;0.95;0.70;;;17.40;99.90;;;;;;5060584;28;20111;-43
2021/10/03 01:50:45;;;;;;;0.47;0.47;;;17.30;99.90;;;;;;5068192;28;20025;-42
2021/10/03 01:53:15;;;;;;;1.33;0.60;;;17.30;99.90;;;;;;5060645;28;20040;-42
2021/10/03 01:55:41;;;;;;;0.63;0.55;;;17.20;99.90;;;;;;5068834;28;20040;-44
2021/10/03 01:58:07;;;;;;;0.95;0.47;;;17.20;99.90;;;;;;5059163;28;20111;-39
2021/10/03 02:00:34;;;;;;;0.60;0.60;;;17.20;99.90;;;;;;5068871;28;20428;-44
2021/10/03 02:03:02;;;;;;;0.75;0.55;;;17.20;99.90;;;;;;5058794;28;20024;-41
2021/10/03 02:05:34;;;;;;;1.23;0.50;;;17.20;99.90;;;;;;5070094;28;20017;-44
2021/10/03 02:08:00;;;;;;;0.50;0.50;;;17.30;99.90;;;;;;5062498;28;20443;-43
2021/10/03 02:10:26;;;;;;;0.70;0.60;;;17.30;99.90;;;;;;5049932;28;20591;-42
2021/10/03 02:12:51;;;;;;;0.60;0.50;;;17.30;99.90;;;;;;5062948;28;20025;-43
2021/10/03 02:15:20;;;;;;;0.52;0.52;;;17.30;99.90;;;;;;5050160;28;20349;-43
2021/10/03 02:17:46;;;;;;;1.10;0.70;;;17.30;99.90;;;;;;5061231;28;20040;-44
2021/10/03 02:20:15;;;;;;;1.75;0.40;;;17.30;99.90;;;;;;5051332;28;20028;-44
2021/10/03 02:22:42;;;;;;;1.08;0.63;;;17.30;99.90;;;;;;5060322;28;20059;-44
2021/10/03 02:25:08;;;;;;;0.63;0.55;;;17.30;99.90;;;;;;5052131;28;20017;-46
2021/10/03 02:27:34;;;;;;;0.50;0.50;;;17.30;99.90;;;;;;5056440;28;20028;-44
2021/10/03 02:30:00;;;;;;;1.38;0.70;;;17.30;99.90;;;;;;5055927;28;20017;-44
2021/10/03 02:32:26;;;;;;;0.68;0.60;;;17.30;99.90;;;;;;5052440;28;20036;-42
2021/10/03 02:34:52;;;;;;;0.57;0.50;;;17.30;99.90;;;;;;5058688;28;20024;-42
2021/10/03 02:37:18;;;;;;;0.55;0.50;;;17.30;99.90;;;;;;5051085;28;20033;-44
2021/10/03 02:39:45;;;;;;;0.73;0.60;;;17.30;99.90;;;;;;5060936;28;20074;-47
2021/10/03 02:42:10;;;;;;;0.82;0.50;;;17.30;99.90;;;;;;5051455;28;20028;-45
2021/10/03 02:44:36;;;;;;;1.65;0.60;;;17.30;99.90;;;;;;5060659;28;20028;-46
2021/10/03 02:47:02;;;;;;;0.77;0.68;;;17.30;99.90;;;;;;5049939;28;20040;-47
2021/10/03 02:49:28;;;;;;;1.20;0.88;;;17.30;99.90;;;;;;5061843;28;20021;-47
2021/10/03 02:51:54;;;;;;;0.60;0.60;;;17.20;99.90;;;;;;5050028;28;20565;-46
2021/10/03 02:54:19;;;;;;;0.68;0.60;;;17.20;99.90;;;;;;5061287;28;20461;-45
2021/10/03 02:56:45;;;;;;;1.20;0.70;;;17.20;99.90;;;;;;5049760;28;20033;-45
2021/10/03 02:59:10;;;;;;;0.80;0.80;;;17.20;99.90;;;;;;5060877;28;20021;-46
2021/10/03 03:01:36;;;;;;;2.78;0.80;;;17.20;99.90;;;;;;5050509;28;20737;-46
2021/10/03 03:04:02;;;;;;;0.68;0.68;;;17.20;99.90;;;;;;5059184;28;20414;-47
2021/10/03 03:06:27;;;;;;;0.60;0.60;;;17.20;99.90;;;;;;5052621;28;20017;-46
2021/10/03 03:08:55;;;;;;;1.25;0.88;;;17.20;99.90;;;;;;5055654;28;20024;-47
2021/10/03 03:11:21;;;;;;;1.38;0.70;;;17.20;99.90;;;;;;5055658;28;20025;-47
2021/10/03 03:13:47;;;;;;;0.68;0.52;;;17.20;99.90;;;;;;5052632;28;20419;-47
2021/10/03 03:16:15;;;;;;;0.95;0.65;;;17.20;99.90;;;;;;5058879;28;20025;-46
2021/10/03 03:18:43;;;;;;;1.30;0.70;;;17.20;99.90;;;;;;5050771;28;20079;-44
2021/10/03 03:21:08;;;;;;;1.45;0.73;;;17.20;99.90;;;;;;5060141;28;20060;-47
2021/10/03 03:23:34;;;;;;;0.70;0.57;;;17.20;99.90;;;;;;5061942;28;20052;-45
2021/10/03 03:26:00;;;;;;;1.58;1.30;;;17.20;99.90;;;;;;5058378;28;20109;-47
2021/10/03 03:28:25;;;;;;;0.80;0.80;;;17.20;99.90;;;;;;5067039;28;20498;-45
2021/10/03 03:30:51;;;;;;;1.35;0.75;;;17.20;99.90;;;;;;5057592;28;20535;-47
2021/10/03 03:33:16;;;;;;;1.15;0.90;;;17.20;99.90;;;;;;5069320;28;20029;-42
2021/10/03 03:35:43;;;;;;;2.75;0.90;;;17.20;99.90;;;;;;5054780;28;20120;-45
2021/10/03 03:38:09;;;;;;;0.80;0.80;;;17.20;99.90;;;;;;5069740;28;20029;-47
2021/10/03 03:40:35;;;;;;;1.70;1.13;;;17.20;99.90;;;;;;5057827;28;20024;-47
2021/10/03 03:43:01;;;;;;;1.08;0.90;;;17.30;99.90;;;;;;5071185;28;20463;-46
2021/10/03 03:45:27;;;;;;;2.20;0.90;;;17.30;99.90;;;;;;5063472;28;20060;-45
2021/10/03 03:47:52;;;;;;;0.68;0.60;;;17.30;99.90;;;;;;5070317;28;20119;-47
2021/10/03 03:50:18;;;;;;;0.40;0.40;;;17.20;99.90;;;;;;5065865;28;20104;-46
2021/10/03 03:52:45;;;;;;;1.65;0.40;;;16.90;99.90;;;;;;5067169;28;20069;-46
2021/10/03 03:55:14;;;;;;;0.63;0.30;;;16.70;99.90;;;;;;5069390;28;20020;-47
2021/10/03 03:57:40;;;;;;;0.30;0.30;;;16.60;99.90;;;;;;5063804;28;20036;-45
2021/10/03 04:00:08;;;;;;;0.65;0.30;;;16.50;99.90;;;;;;5071163;28;20016;-44
2021/10/03 04:02:33;;;;;;;1.42;0.35;;;16.50;99.90;;;;;;5061591;28;20024;-46
2021/10/03 04:04:59;;;;;;;0.55;0.30;;;16.40;99.90;;;;;;5071890;28;20013;-44
2021/10/03 04:07:25;;;;;;;0.32;0.22;;;16.40;99.90;;;;;;5060976;28;20029;-45
2021/10/03 04:09:51;;;;;;;1.38;0.40;;;16.40;99.90;;;;;;5071421;28;20029;-44
2021/10/03 04:12:19;;;;;;;0.22;0.22;;;16.40;99.90;;;;;;5060489;28;20026;-46
2021/10/03 04:14:45;;;;;;;0.60;0.50;;;16.40;99.90;;;;;;5073278;28;20143;-45
2021/10/03 04:17:13;;;;;;;0.85;0.30;;;16.40;99.90;;;;;;5059175;28;20136;-46
2021/10/03 04:19:42;;;;;;;0.50;0.40;;;16.30;99.90;;;;;;5072949;28;20016;-44
2021/10/03 04:22:10;;;;;;;0.80;0.30;;;16.30;99.90;;;;;;5061861;28;20021;-47
2021/10/03 04:24:36;;;;;;;0.63;0.35;;;16.20;99.90;;;;;;5071762;28;20092;-46
2021/10/03 04:27:02;;;;;;;0.75;0.25;;;16.10;99.90;;;;;;5062151;28;20425;-44
2021/10/03 04:29:28;;;;;;;0.93;0.28;;;16.00;99.90;;;;;;5070410;28;20082;-44
2021/10/03 04:31:53;;;;;;;0.70;0.40;;;15.90;99.90;;;;;;5063990;28;20052;-44
2021/10/03 04:34:19;;;;;;;0.20;0.20;;;15.80;99.90;;;;;;5067483;28;20016;-44
2021/10/03 04:36:45;;;;;;;1.02;0.40;;;15.80;99.90;;;;;;5066381;28;20047;-46
2021/10/03 04:39:11;;;;;;;1.10;0.35;;;15.80;99.90;;;;;;5064794;28;20116;-43
2021/10/03 04:41:45;;;;;;;1.17;0.50;;;15.70;99.90;;;;;;5068790;28;20021;-44
2021/10/03 04:44:16;;;;;;;0.40;0.30;;;15.70;99.90;;;;;;5064288;28;20024;-45
2021/10/03 04:46:50;;;;;;;1.20;0.40;;;15.60;99.90;;;;;;5068458;28;20017;-46
2021/10/03 04:49:16;;;;;;;0.55;0.20;;;15.60;99.90;;;;;;5063246;28;20021;-46
2021/10/03 04:51:45;;;;;;;0.75;0.35;;;15.60;99.90;;;;;;5069949;28;20019;-46
2021/10/03 04:54:26;;;;;;;;;;;;;;;;;;;;;
2021/10/03 04:56:52;;;;;;;0.57;0.30;;;15.50;99.90;;;;;;5067232;28;20039;-44
2021/10/03 04:59:18;;;;;;;0.95;0.40;;;15.50;99.90;;;;;;5059836;28;20032;-47
2021/10/03 05:01:45;;;;;;;0.88;0.40;;;15.50;99.90;;;;;;5070585;28;20017;-45
2021/10/03 05:04:11;;;;;;;1.08;0.40;;;15.50;99.90;;;;;;5060517;28;20032;-46
2021/10/03 05:06:36;;;;;;;1.02;0.40;;;15.50;99.90;;;;;;5071159;28;20017;-46
2021/10/03 05:09:05;;;;;;;0.85;0.30;;;15.50;99.90;;;;;;5064015;28;20100;-44
2021/10/03 05:11:34;;;;;;;1.45;0.45;;;15.60;99.90;;;;;;5051029;28;20064;-44
2021/10/03 05:14:05;;;;;;;0.38;0.30;;;15.60;99.90;;;;;;5063463;28;20515;-45
2021/10/03 05:16:31;;;;;;;0.65;0.30;;;15.60;99.90;;;;;;5051333;28;20051;-45
2021/10/03 05:18:58;;;;;;;0.22;0.20;;;15.60;99.90;;;;;;5063693;28;20455;-46
2021/10/03 05:21:25;;;;;;;1.38;0.50;;;15.60;99.90;;;;;;5062041;28;20032;-43
2021/10/03 05:23:55;;;;;;;0.88;0.30;;;15.60;99.90;;;;;;5061350;28;20541;-44
2021/10/03 05:26:22;;;;;;;1.20;0.40;;;15.60;99.90;;;;;;5060098;28;20021;-43
2021/10/03 05:28:48;;;;;;;0.80;0.40;;;15.50;99.90;;;;;;5061671;28;20495;-44
2021/10/03 05:31:23;;;;;;;1.00;0.52;;;15.50;99.90;;;;;;5062734;28;20468;-44
2021/10/03 05:33:53;;;;;;;0.40;0.30;;;15.50;99.90;;;;;;5058844;28;20048;-45
2021/10/03 05:36:22;;;;;;;1.05;0.40;;;15.50;99.90;;;;;;5058740;28;20052;-45
2021/10/03 05:38:47;;;;;;;1.27;0.40;;;15.40;99.90;;;;;;5059690;28;20024;-42
2021/10/03 05:41:13;;;;;;;0.98;0.32;;;15.40;99.90;;;;;;5062302;28;20484;-44
2021/10/03 05:43:39;;;;;;;1.13;0.32;;;15.40;99.90;;;;;;5058949;28;20036;-45
2021/10/03 05:46:09;;;;;;;1.38;0.43;;;15.30;99.90;;;;;;5064390;28;20119;-47
2021/10/03 05:48:35;;;;;;;1.65;0.40;;;15.30;99.90;;;;;;5066767;28;20059;-44
2021/10/03 05:51:01;;;;;;;0.88;0.35;;;15.30;99.90;;;;;;5062591;28;20056;-45
2021/10/03 05:53:28;;;;;;;1.08;0.45;;;15.40;99.90;;;;;;5067208;28;20047;-45
2021/10/03 05:55:56;;;;;;;1.25;0.40;;;15.30;99.90;;;;;;5062175;28;20040;-45
2021/10/03 05:58:22;;;;;;;0.88;0.50;;;15.30;99.90;;;;;;5068019;28;20140;-46
2021/10/03 06:00:48;;;;;;;0.80;0.50;;;15.30;99.90;;;;;;5061715;28;20519;-45
2021/10/03 06:03:13;;;;;;;1.33;0.40;;;15.30;99.90;;;;;;5068486;28;20016;-46
2021/10/03 06:05:39;;;;;;;1.95;0.80;;;15.40;99.90;;;;;;5064333;28;20444;-46
2021/10/03 06:08:10;;;;;;;0.98;0.40;;;15.40;99.90;;;;;;5066634;28;20530;-44
2021/10/03 06:10:37;;;;;;;1.35;0.63;;;15.30;99.90;;;;;;5051165;28;20037;-47
2021/10/03 06:13:12;;;;;;;1.33;0.40;;;15.30;99.90;;;;;;5063446;28;20020;-43
2021/10/03 06:15:45;;;;;;;1.95;0.77;;;15.30;99.90;;;;;;5064130;28;20044;-44
2021/10/03 06:18:11;;;;;;;;;;;15.20;99.90;;;;;;5066718;28;20396;-46
2021/10/03 06:20:44;;;;;;;1.13;0.60;;;15.20;99.90;;;;;;5062953;28;19970;-44
2021/10/03 06:23:14;;;;;;;1.50;0.60;;;15.30;99.90;;;;;;5062971;28;20041;-44
2021/10/03 06:25:43;;;;;;;1.52;0.70;;;15.30;99.90;;;;;;5059209;28;20036;-45
2021/10/03 06:28:09;;;;;;;1.10;0.60;;;15.30;99.90;;;;;;5066068;28;20032;-46
2021/10/03 06:30:38;;;;;;;1.02;0.60;;;15.30;99.90;;;;;;5062100;28;20472;-47
2021/10/03 06:33:03;;;;;;;0.85;0.60;;;15.40;99.90;;;;;;5065999;28;20028;-45
2021/10/03 06:35:31;;;;;;;1.45;0.70;;;15.40;99.90;;;;;;5066180;28;20423;-45
2021/10/03 06:38:06;;;;;;;1.30;0.80;;;15.40;99.90;;;;;;5062053;28;20411;-44
2021/10/03 06:40:35;;;;;;;1.17;0.70;;;15.40;99.90;;;;;;5064666;28;20025;-46
2021/10/03 06:43:03;;;;;;;1.13;0.60;;;15.40;99.90;;;;;;5063640;28;20032;-45
2021/10/03 06:45:29;;;;;;;1.00;0.70;;;15.40;99.90;;;;;;5066427;28;20021;-45
2021/10/03 06:47:55;;;;;;;2.95;1.00;;;15.40;99.90;;;;;;5062766;28;20098;-44
2021/10/03 06:50:20;;;;;;;1.83;1.00;;;15.40;99.90;;;;;;5066264;28;20102;-46
2021/10/03 06:52:49;;;;;;;1.73;1.00;;;15.40;99.90;;;;;;5062311;28;20024;-42
2021/10/03 06:55:14;;;;;;;2.65;1.10;;;15.40;99.90;;;;;;5067494;28;20028;-45
2021/10/03 06:57:40;;;;;;;0.88;0.70;;;15.40;99.90;;;;;;5063226;28;20029;-45
2021/10/03 07:00:09;;;;;;;1.42;0.80;;;15.40;99.90;;;;;;5066188;28;20104;-46
2021/10/03 07:02:36;;;;;;;1.50;0.88;;;15.40;99.90;;;;;;5061790;28;20491;-47
2021/10/03 07:05:02;;;;;;;1.92;1.20;;;15.40;99.90;;;;;;5065715;28;20614;-46
2021/10/03 07:07:28;;;;;;;1.67;1.00;;;15.40;99.90;;;;;;5059036;28;20119;-46
2021/10/03 07:09:54;;;;;;;1.98;1.15;;;15.40;99.90;;;;;;5065510;28;20028;-46
2021/10/03 07:12:20;;;;;;;1.45;1.00;;;15.50;99.90;;;;;;5061268;28;20020;-43
2021/10/03 07:14:45;;;;;;;1.70;1.10;;;15.40;99.90;;;;;;5064016;28;20471;-46
2021/10/03 07:17:12;;;;;;;2.08;1.20;;;15.40;99.90;;;;;;5065744;28;20085;-44
2021/10/03 07:19:38;;;;;;;2.15;0.90;;;15.40;99.90;;;;;;5068381;28;20016;-43
2021/10/03 07:22:04;;;;;;;1.40;1.20;;;15.40;99.90;;;;;;5067293;28;20032;-44
2021/10/03 07:24:30;;;;;;;1.52;1.10;;;15.30;99.90;;;;;;5066226;28;20024;-44
2021/10/03 07:27:01;;;;;;;2.40;1.05;;;15.30;99.90;;;;;;5067913;28;20033;-45
2021/10/03 07:29:26;;;;;;;1.48;1.33;;;15.30;99.90;;;;;;5064733;28;20031;-46
2021/10/03 07:31:52;;;;;;;1.65;1.55;;;15.20;99.90;;;;;;5069717;28;20033;-44
2021/10/03 07:34:18;;;;;;;1.50;1.40;;;15.10;99.90;;;;;;5067232;28;20020;-45
2021/10/03 07:36:43;;;;;;;2.28;1.60;;;15.00;99.90;;;;;;5070945;28;20021;-44
2021/10/03 07:39:12;;;;;;;2.40;1.52;;;15.00;99.90;;;;;;5067668;28;20043;-42
2021/10/03 07:41:38;;;;;;;3.03;1.40;;;15.00;99.90;;;;;;5068299;28;20016;-46
2021/10/03 07:44:04;;;;;;;1.35;1.17;;;15.00;99.90;;;;;;5065114;28;20040;-46
2021/10/03 07:46:30;;;;;;;1.30;1.17;;;15.00;99.90;;;;;;5070372;28;20017;-46
2021/10/03 07:48:56;;;;;;;1.17;0.90;;;15.00;99.90;;;;;;5068043;28;20100;-44
2021/10/03 07:51:22;;;;;;;2.40;1.20;;;15.00;99.90;;;;;;5068093;28;20034;-46
2021/10/03 07:53:48;;;;;;;1.27;1.17;;;15.00;99.90;;;;;;5067559;28;20040;-45
2021/10/03 07:56:15;;;;;;;1.30;1.00;;;14.90;99.90;;;;;;5060949;28;20013;-45
2021/10/03 07:58:41;;;;;;;1.50;1.10;;;14.90;99.90;;;;;;5068226;28;20048;-46
2021/10/03 08:01:16;;;;;;;1.67;0.93;;;14.90;99.90;;;;;;5061683;28;20039;-47
2021/10/03 08:03:42;;;;;;;1.38;0.90;;;14.90;99.90;;;;;;5059781;28;20495;-45
2021/10/03 08:06:20;;;;;;;1.40;1.02;;;15.00;99.90;;;;;;5062933;28;20032;-45
2021/10/03 08:08:46;;;;;;;1.67;1.00;;;15.00;99.90;;;;;;5064707;28;20107;-44
2021/10/03 08:11:11;;;;;;;0.70;0.60;;;15.00;99.90;;;;;;5069259;28;20043;-45
2021/10/03 08:13:39;;;;;;;1.10;0.90;;;15.00;99.90;;;;;;5061278;28;20056;-47
2021/10/03 08:16:07;;;;;;;1.30;1.20;;;14.90;99.90;;;;;;5062944;28;20025;-44
2021/10/03 08:18:32;;;;;;;1.65;1.20;;;14.80;99.90;;;;;;5060681;28;20029;-45
2021/10/03 08:21:00;;;;;;;1.20;1.10;;;14.80;99.90;;;;;;5062585;28;20078;-45
2021/10/03 08:23:26;;;;;;;1.60;1.17;;;14.80;99.90;;;;;;5057695;28;20108;-45
2021/10/03 08:25:51;;;;;;;1.70;1.10;;;14.80;99.90;;;;;;5060360;28;20112;-43
2021/10/03 08:28:17;;;;;;;1.58;0.80;;;14.80;99.90;;;;;;5048806;28;20119;-45
2021/10/03 08:30:43;;;;;;;0.90;0.60;;;14.70;99.90;;;;;;5062028;28;20082;-46
2021/10/03 08:33:08;;;;;;;1.58;0.50;;;14.60;99.90;;;;;;5061211;28;20447;-45
2021/10/03 08:35:34;;;;;;;2.65;0.60;;;14.40;99.90;;;;;;5065481;28;20100;-45
2021/10/03 08:38:00;;;;;;;1.25;0.47;;;14.30;99.90;;;;;;5050156;28;20116;-45
2021/10/03 08:40:26;;;;;;;1.85;0.60;;;14.10;99.90;;;;;;5061374;28;20020;-46
2021/10/03 08:42:52;;;;;;;2.72;0.60;;;14.10;99.90;;;;;;5054635;28;20391;-46
2021/10/03 08:45:17;;;;;;;1.48;0.47;;;14.00;99.90;;;;;;5058572;28;20029;-47
2021/10/03 08:47:43;;;;;;;1.33;0.50;;;14.00;99.90;;;;;;5057245;28;20456;-47
2021/10/03 08:50:14;;;;;;;1.42;0.60;;;14.00;99.90;;;;;;5057135;28;20009;-46
2021/10/03 08:52:43;;;;;;;2.83;0.70;;;14.00;99.90;;;;;;5070349;28;20418;-46
2021/10/03 08:55:10;;;;;;;1.65;0.80;;;13.90;99.90;;;;;;5069045;28;20016;-48
2021/10/03 08:57:36;;;;;;;1.38;0.63;;;14.00;99.90;;;;;;5063403;28;20063;-43
2021/10/03 09:00:19;;;;;;;2.33;0.70;;;14.00;99.90;;;;;;5070455;28;20067;-47
2021/10/03 09:03:07;;;;;;;1.17;0.60;;;14.00;99.90;;;;;;5063162;28;20039;-46
2021/10/03 09:05:38;;;;;;;1.10;0.50;;;14.00;99.90;;;;;;5066959;28;20024;-47
2021/10/03 09:08:13;;;;;;;1.60;0.68;;;14.00;99.90;;;;;;5064508;28;20024;-46
2021/10/03 09:10:53;;;;;;;0.93;0.73;;;14.10;99.90;;;;;;5067816;28;20017;-47
2021/10/03 09:13:32;;;;;;;1.42;0.80;;;14.10;99.90;;;;;;5063561;28;20028;-47
2021/10/03 09:16:32;;;;;;;1.42;0.88;;;14.10;99.90;;;;;;5067353;28;20033;-46
2021/10/03 09:19:12;;;;;;;1.17;0.57;;;14.10;99.90;;;;;;5068119;28;20028;-45
2021/10/03 09:21:43;;;;;;;1.35;0.70;;;14.10;99.90;;;;;;5062134;28;20570;-45
2021/10/03 09:24:14;;;;;;;1.00;0.80;;;14.10;99.90;;;;;;5053504;28;20086;-45
2021/10/03 09:27:06;;;;;;;1.67;1.00;;;14.10;99.90;;;;;;5058036;28;20024;-46
2021/10/03 09:29:36;;;;;;;0.82;0.82;;;14.10;99.90;;;;;;5052445;28;20052;-43
2021/10/03 09:32:19;;;;;;;1.70;0.90;;;14.20;99.90;;;;;;5060609;28;20033;-46
2021/10/03 09:34:50;;;;;;;0.90;0.90;;;14.10;99.90;;;;;;5067249;28;20017;-47
2021/10/03 09:37:18;;;;;;;2.50;1.05;;;14.10;99.90;;;;;;5060894;28;20479;-44
2021/10/03 09:39:50;;;;;;;1.05;1.00;;;14.10;99.90;;;;;;5068414;28;20028;-46
2021/10/03 09:42:17;;;;;;;0.70;0.70;;;14.20;99.90;;;;;;5062253;28;20040;-47
2021/10/03 09:45:07;;;;;;;0.63;0.63;;;14.20;99.90;;;;;;5067187;28;20095;-46
2021/10/03 09:47:33;;;;;;;0.55;0.55;;;14.30;99.90;;;;;;5060549;28;20396;-44
2021/10/03 09:49:59;;;;;;;0.65;0.50;;;14.30;99.90;;;;;;5067525;28;20109;-46
2021/10/03 09:52:25;;;;;;;0.68;0.68;;;14.30;99.90;;;;;;5065870;28;20571;-46
2021/10/03 09:54:52;;;;;;;0.57;0.57;;;14.30;99.90;;;;;;5076086;28;20086;-48
2021/10/03 09:57:24;;;;;;;0.50;0.50;;;14.30;99.90;;;;;;5063586;28;20464;-45
2021/10/03 09:59:50;;;;;;;0.52;0.52;;;14.30;99.90;;;;;;5061304;28;20546;-38
2021/10/03 10:02:18;;;;;;;0.80;0.80;;;14.30;99.90;;;;;;5065956;28;20024;-38
2021/10/03 10:04:43;;;;;;;0.52;0.52;;;14.40;99.90;;;;;;5061563;28;20103;-38
2021/10/03 10:07:09;;;;;;;1.13;1.02;;;14.40;99.90;;;;;;5049994;28;20124;-37
2021/10/03 10:09:36;;;;;;;0.73;0.50;;;14.50;99.90;;;;;;5059467;28;20108;-38
2021/10/03 10:12:08;;;;;;;0.85;0.30;;;14.50;99.90;;;;;;5051370;28;20116;-37
2021/10/03 10:14:37;;;;;;;0.85;0.40;;;14.50;99.90;;;;;;5059491;28;20624;-37
2021/10/03 10:17:25;;;;;;;0.40;0.40;;;14.50;99.90;;;;;;5061746;28;20107;-37
2021/10/03 10:19:54;;;;;;;0.30;0.30;;;14.60;99.90;;;;;;5069112;28;20051;-36
2021/10/03 10:22:25;;;;;;;0.20;0.20;;;14.60;99.90;;;;;;5067944;28;20038;-38
2021/10/03 10:24:53;;;;;;;0.30;0.30;;;14.70;99.90;;;;;;5057334;28;20368;-38
2021/10/03 10:27:19;;;;;;;1.10;0.40;;;14.70;99.90;;;;;;5067890;28;20039;-38
2021/10/03 10:30:11;;;;;;;0.20;0.20;;;14.80;99.90;;;;;;5057180;28;20391;-38
2021/10/03 10:32:55;;;;;;;0.30;0.30;;;14.80;99.90;;;;;;5069023;28;20028;-38
2021/10/03 10:35:23;;;;;;;0.40;0.40;;;14.90;99.90;;;;;;5060722;28;20558;-38
2021/10/03 10:37:48;;;;;;;0.50;0.30;;;14.90;99.90;;;;;;5049842;28;20040;-38
2021/10/03 10:40:23;;;;;;;0.25;0.20;;;14.80;99.90;;;;;;5059395;28;20017;-39
2021/10/03 10:43:04;;;;;;;0.40;0.20;;;14.80;99.90;;;;;;5048758;28;20029;-38
2021/10/03 10:45:33;;;;;;;0.32;0.32;;;14.80;99.90;;;;;;5058326;28;20425;-36
2021/10/03 10:48:14;;;;;;;0.20;0.20;;;14.80;99.90;;;;;;5048287;28;20036;-36
2021/10/03 10:50:41;;;;;;;0.57;0.30;;;14.90;99.90;;;;;;5058990;28;20074;-38
2021/10/03 10:53:16;;;;;;;0.30;0.30;;;15.00;99.90;;;;;;5047945;28;20025;-38
2021/10/03 10:55:42;;;;;;;0.60;0.40;;;15.00;99.90;;;;;;5057355;28;20074;-37
2021/10/03 10:58:10;;;;;;;0.43;0.40;;;15.20;99.90;;;;;;5069937;28;20044;-37
2021/10/03 11:00:48;;;;;;;0.47;0.38;;;15.20;99.90;;;;;;5056670;28;20021;-37
2021/10/03 11:03:13;;;;;;;0.45;0.32;;;15.30;99.90;;;;;;5069872;28;20094;-37
2021/10/03 11:05:47;;;;;;;0.30;0.30;;;15.30;99.90;;;;;;5056282;28;20025;-37
2021/10/03 11:08:21;;;;;;;0.63;0.40;;;15.30;99.90;;;;;;5070744;28;20028;-37
2021/10/03 11:10:59;;;;;;;0.60;0.52;;;15.40;99.90;;;;;;5065906;28;20017;-37
2021/10/03 11:13:46;;;;;;;0.50;0.50;;;15.40;99.90;;;;;;5049050;28;20031;-36
2021/10/03 11:16:27;;;;;;;0.43;0.43;;;15.40;99.90;;;;;;5061960;28;20064;-36
2021/10/03 11:19:16;;;;;;;0.60;0.60;;;15.50;99.90;;;;;;5049620;28;20048;-36
2021/10/03 11:21:48;;;;;;;0.68;0.45;;;15.50;99.90;;;;;;5060842;28;20028;-36
2021/10/03 11:24:49;;;;;;;0.40;0.40;;;15.50;99.90;;;;;;5064432;28;20032;-36
2021/10/03 11:27:28;;;;;;;0.55;0.55;;;15.50;99.90;;;;;;5047387;28;20071;-36
2021/10/03 11:29:56;;;;;;;0.60;0.60;;;15.50;99.90;;;;;;5069113;28;20029;-36
2021/10/03 11:32:35;;;;;;;0.60;0.60;;;15.50;99.90;;;;;;5057776;28;20032;-36
2021/10/03 11:35:00;;;;;;;0.40;0.40;;;15.60;99.90;;;;;;5068538;28;20013;-36
2021/10/03 11:37:34;;;;;;;0.80;0.80;;;15.60;99.90;;;;;;5058305;28;20039;-36
2021/10/03 11:40:07;;;;;;;0.70;0.60;;;15.60;99.90;;;;;;5067382;28;20017;-36
2021/10/03 11:42:40;;;;;;;0.65;0.65;;;15.60;99.90;;;;;;5058176;28;20020;-37
2021/10/03 11:45:13;;;;;;;0.75;0.73;;;15.70;99.90;;;;;;5068617;28;20048;-36
2021/10/03 11:47:46;;;;;;;2.88;0.60;;;15.70;99.90;;;;;;5060298;28;20031;-36
2021/10/03 11:50:42;;;;;;;0.50;0.50;;;15.70;99.90;;;;;;5050088;28;20021;-37
2021/10/03 11:53:22;;;;;;;0.32;0.30;;;15.70;99.90;;;;;;5060759;28;20455;-37
2021/10/03 11:59:01;;;;;;;0.38;0.38;;;15.70;99.90;;;;;;5018580;28;20570;-36
2021/10/03 12:01:32;;;;;;;0.60;0.60;;;15.70;99.90;;;;;;5053163;28;20075;-36
2021/10/03 12:04:02;;;;;;;0.60;0.60;;;15.70;99.90;;;;;;5064152;28;20040;-36
2021/10/03 12:06:33;;;;;;;0.40;0.40;;;15.70;99.90;;;;;;5069037;28;20029;-36
2021/10/03 12:09:13;;;;;;;0.40;0.40;;;15.80;99.90;;;;;;5063967;28;20380;-36
2021/10/03 12:12:15;;;;;;;0.47;0.40;;;15.80;99.90;;;;;;5069675;28;20021;-36
2021/10/03 12:14:44;;;;;;;0.40;0.40;;;15.80;99.90;;;;;;5063964;28;20450;-36
2021/10/03 12:17:10;;;;;;;0.30;0.30;;;15.70;99.90;;;;;;5065952;28;20029;-36
2021/10/03 12:19:56;;;;;;;0.38;0.38;;;15.70;99.90;;;;;;5065605;28;20367;-36
2021/10/03 12:22:21;;;;;;;0.40;0.40;;;15.80;99.90;;;;;;5065612;28;20039;-36
2021/10/03 12:24:55;;;;;;;0.20;0.20;;;15.90;99.90;;;;;;5071951;28;20353;-36
2021/10/03 12:27:26;;;;;;;0.30;0.30;;;15.90;99.90;;;;;;5067741;28;20028;-36
2021/10/03 12:29:56;;;;;;;0.80;0.40;;;16.00;99.90;;;;;;5063890;28;20056;-36
2021/10/03 12:32:23;;;;;;;0.35;0.30;;;16.10;99.90;;;;;;5067805;28;20099;-36
2021/10/03 12:34:53;;;;;;;0.50;0.50;;;16.10;99.90;;;;;;5062806;28;20028;-36
2021/10/03 12:37:20;;;;;;;0.45;0.43;;;16.10;99.90;;;;;;5069608;28;20033;-36
2021/10/03 12:39:55;;;;;;;1.08;0.80;;;16.10;99.90;;;;;;5061606;28;20388;-36
2021/10/03 12:42:23;;;;;;;0.80;0.80;;;16.10;99.90;;;;;;5070291;28;20535;-36
2021/10/03 12:44:50;;;;;;;1.52;1.00;;;16.10;99.90;;;;;;5060387;28;20020;-36
2021/10/03 12:47:18;;;;;;;1.60;1.50;;;16.10;99.90;;;;;;5070310;28;20377;-36
2021/10/03 12:49:45;;;;;;;2.17;1.52;;;16.10;99.90;;;;;;5061190;28;20020;-36
2021/10/03 12:52:12;;;;;;;1.60;1.50;;;16.10;99.90;;;;;;5072089;28;20017;-36
2021/10/03 12:54:39;;;;;;;2.10;2.00;;;16.00;99.90;;;;;;5063698;28;20021;-36
2021/10/03 12:57:05;;;;;;;2.20;2.00;;;16.00;99.90;;;;;;5051706;28;20065;-36
2021/10/03 12:59:31;;;;;;;2.10;2.00;;;15.90;99.90;;;;;;5064002;28;20028;-36